Time;durP1;ratioP1;P1;durP2;ratioP2;P2;SDS_P1;SDS_P2;PMS_P1;PMS_P2;Temp;Humidity;BMP_temperature;BMP_pressure;BME280_temperature;BME280_humidity;BME280_pressure;Samples;Min_cycle;Max_cycle;Signal;HPM_P1;HPM_P2
2021/01/25 00:01:10;;;;;;;;;4.00;4.00;;;;;;;;4999647;28;11603;-82
2021/01/25 00:03:37;;;;;;;;;7.00;4.00;;;;;;;;5001635;28;11580;-78
2021/01/25 00:06:05;;;;;;;;;4.00;4.00;;;;;;;;5002659;28;11615;-80
2021/01/25 00:08:32;;;;;;;;;6.00;4.00;;;;;;;;5003602;28;11654;-80
2021/01/25 00:10:59;;;;;;;;;5.50;5.50;;;;;;;;5004032;28;11600;-81
2021/01/25 00:13:26;;;;;;;;;4.25;4.25;;;;;;;;5003729;28;12549;-79
2021/01/25 00:15:53;;;;;;;;;2.00;1.75;;;;;;;;4983987;28;11597;-79
2021/01/25 00:18:20;;;;;;;;;4.25;4.25;;;;;;;;5001940;28;11585;-85
2021/01/25 00:20:46;;;;;;;;;2.50;2.50;;;;;;;;5003168;28;11583;-82
2021/01/25 00:23:14;;;;;;;;;1.75;1.00;;;;;;;;5000565;28;11670;-81
2021/01/25 00:25:41;;;;;;;;;4.25;2.00;;;;;;;;5005015;28;11644;-82
2021/01/25 00:28:08;;;;;;;;;1.00;1.00;;;;;;;;5003637;28;11598;-83
2021/01/25 00:30:35;;;;;;;;;1.00;1.00;;;;;;;;5001652;28;11502;-81
2021/01/25 00:33:02;;;;;;;;;1.25;1.25;;;;;;;;5002902;28;11640;-83
2021/01/25 00:35:29;;;;;;;;;1.00;1.00;;;;;;;;4999995;28;11797;-81
2021/01/25 00:37:55;;;;;;;;;1.50;1.50;;;;;;;;5000425;28;11579;-81
2021/01/25 00:40:23;;;;;;;;;1.00;1.00;;;;;;;;4999938;28;11569;-77
2021/01/25 00:42:50;;;;;;;;;1.00;1.00;;;;;;;;5003726;28;11581;-78
2021/01/25 00:45:17;;;;;;;;;0.75;0.75;;;;;;;;4998294;28;11588;-75
2021/01/25 00:47:44;;;;;;;;;2.00;0.00;;;;;;;;5003591;28;11615;-77
2021/01/25 00:50:11;;;;;;;;;1.00;1.00;;;;;;;;4998893;28;11649;-78
2021/01/25 00:52:38;;;;;;;;;0.00;0.00;;;;;;;;5000799;28;12013;-79
2021/01/25 00:55:07;;;;;;;;;3.00;1.00;;;;;;;;5004258;28;11594;-80
2021/01/25 00:57:35;;;;;;;;;1.00;1.00;;;;;;;;4984747;28;11586;-80
2021/01/25 01:00:03;;;;;;;;;1.00;1.00;;;;;;;;5003232;28;11590;-78
2021/01/25 01:02:30;;;;;;;;;1.75;1.00;;;;;;;;5001708;28;11519;-75
2021/01/25 01:04:56;;;;;;;;;1.00;1.00;;;;;;;;5001851;28;11596;-78
2021/01/25 01:07:23;;;;;;;;;0.00;0.00;;;;;;;;5002666;28;11555;-76
2021/01/25 01:09:50;;;;;;;;;7.25;4.50;;;;;;;;5003862;28;11612;-80
2021/01/25 01:12:17;;;;;;;;;0.00;0.00;;;;;;;;4985880;28;11656;-81
2021/01/25 01:14:45;;;;;;;;;0.25;0.25;;;;;;;;5001693;28;11596;-78
2021/01/25 01:17:11;;;;;;;;;1.00;1.00;;;;;;;;5003437;28;11573;-82
2021/01/25 01:19:38;;;;;;;;;1.00;1.00;;;;;;;;5003029;28;11638;-80
2021/01/25 01:22:05;;;;;;;;;1.75;1.75;;;;;;;;4997331;28;12364;-86
2021/01/25 01:24:32;;;;;;;;;4.25;1.00;;;;;;;;5002512;28;11595;-85
2021/01/25 01:26:59;;;;;;;;;3.00;0.50;;;;;;;;4985094;28;11596;-82
2021/01/25 01:29:26;;;;;;;;;1.00;1.00;;;;;;;;5004516;28;11565;-85
2021/01/25 01:31:54;;;;;;;;;2.00;2.00;;;;;;;;5001598;28;11598;-80
2021/01/25 01:34:20;;;;;;;;;2.00;1.00;;;;;;;;4982766;28;11610;-84
2021/01/25 01:36:47;;;;;;;;;1.00;1.00;;;;;;;;4999666;28;11596;-77
2021/01/25 01:39:14;;;;;;;;;4.00;1.75;;;;;;;;5002444;28;11565;-76
2021/01/25 01:41:41;;;;;;;;;0.00;0.00;;;;;;;;5001423;28;11574;-76
2021/01/25 01:44:09;;;;;;;;;1.00;1.00;;;;;;;;5002690;28;11574;-78
2021/01/25 01:46:36;;;;;;;;;1.00;1.00;;;;;;;;5001483;28;11587;-78
2021/01/25 01:49:04;;;;;;;;;1.00;1.00;;;;;;;;5001480;28;11617;-80
2021/01/25 01:51:31;;;;;;;;;1.75;1.25;;;;;;;;5003595;28;11744;-76
2021/01/25 01:53:58;;;;;;;;;0.00;0.00;;;;;;;;5001974;28;11634;-84
2021/01/25 01:56:25;;;;;;;;;1.00;1.00;;;;;;;;5000435;28;11601;-86
2021/01/25 01:58:53;;;;;;;;;7.25;5.00;;;;;;;;5002245;28;11617;-77
2021/01/25 02:01:20;;;;;;;;;1.50;1.50;;;;;;;;5002396;28;11564;-79
2021/01/25 02:03:47;;;;;;;;;1.00;1.00;;;;;;;;4997216;28;11604;-85
2021/01/25 02:06:14;;;;;;;;;1.75;1.75;;;;;;;;4999806;28;11567;-78
2021/01/25 02:08:42;;;;;;;;;2.75;1.25;;;;;;;;5005319;28;11592;-85
2021/01/25 02:11:09;;;;;;;;;3.50;1.00;;;;;;;;4985734;28;11601;-78
2021/01/25 02:13:36;;;;;;;;;1.75;1.75;;;;;;;;4986612;28;12338;-82
2021/01/25 02:16:05;;;;;;;;;1.00;1.00;;;;;;;;4987256;28;11609;-83
2021/01/25 02:18:35;;;;;;;;;1.75;1.00;;;;;;;;5002024;28;11636;-76
2021/01/25 02:21:04;;;;;;;;;1.00;1.00;;;;;;;;5002331;28;11696;-77
2021/01/25 02:23:50;;;;;;;;;0.00;0.00;;;;;;;;5002806;28;11669;-88
2021/01/25 02:26:24;;;;;;;;;0.00;0.00;;;;;;;;5004005;28;11598;-87
2021/01/25 02:28:53;;;;;;;;;0.00;0.00;;;;;;;;5002317;28;11589;-83
2021/01/25 02:31:20;;;;;;;;;1.00;1.00;;;;;;;;4998605;28;11575;-79
2021/01/25 02:33:49;;;;;;;;;1.00;1.00;;;;;;;;4994005;28;11571;-87
2021/01/25 02:36:16;;;;;;;;;0.00;0.00;;;;;;;;4975802;28;11739;-86
2021/01/25 02:38:45;;;;;;;;;0.50;0.50;;;;;;;;5003386;28;11573;-92
2021/01/25 02:41:13;;;;;;;;;1.00;1.00;;;;;;;;5001546;28;11626;-91
2021/01/25 02:43:41;;;;;;;;;0.00;0.00;;;;;;;;5000973;28;11690;-83
2021/01/25 02:46:09;;;;;;;;;0.00;0.00;;;;;;;;5000055;28;11565;-89
2021/01/25 02:48:37;;;;;;;;;0.75;0.75;;;;;;;;5002168;28;11584;-92
2021/01/25 02:51:05;;;;;;;;;1.00;1.00;;;;;;;;5001844;28;12212;-83
2021/01/25 02:53:32;;;;;;;;;1.00;1.00;;;;;;;;5002518;28;11584;-90
2021/01/25 02:56:01;;;;;;;;;1.25;1.25;;;;;;;;4987355;28;11558;-84
2021/01/25 02:58:28;;;;;;;;;1.00;1.00;;;;;;;;5002430;28;11602;-94
2021/01/25 03:00:55;;;;;;;;;3.00;3.00;;;;;;;;4990209;28;11519;-92
2021/01/25 03:03:24;;;;;;;;;4.00;4.00;;;;;;;;5001876;28;11609;-87
2021/01/25 03:05:51;;;;;;;;;1.00;1.00;;;;;;;;5005627;28;13084;-88
2021/01/25 03:08:18;;;;;;;;;3.00;3.00;;;;;;;;5006062;28;11614;-84
2021/01/25 03:10:47;;;;;;;;;4.00;4.00;;;;;;;;5006992;28;12385;-83
2021/01/25 03:13:15;;;;;;;;;3.67;3.67;;;;;;;;5005704;28;12371;-81
2021/01/25 03:15:43;;;;;;;;;4.00;4.00;;;;;;;;5006415;28;11636;-83
2021/01/25 03:18:10;;;;;;;;;3.67;3.67;;;;;;;;5002104;28;11598;-84
2021/01/25 03:20:38;;;;;;;;;3.00;3.00;;;;;;;;5004545;28;11583;-89
2021/01/25 03:23:05;;;;;;;;;3.00;3.00;;;;;;;;5006806;28;11630;-84
2021/01/25 03:25:31;;;;;;;;;4.67;4.67;;;;;;;;5012905;28;11585;-88
2021/01/25 03:27:58;;;;;;;;;5.33;5.33;;;;;;;;5011032;28;11534;-89
2021/01/25 03:30:25;;;;;;;;;4.00;4.00;;;;;;;;5004517;28;11537;-85
2021/01/25 03:32:52;;;;;;;;;3.33;3.33;;;;;;;;5004407;28;11612;-90
2021/01/25 03:35:19;;;;;;;;;4.67;4.67;;;;;;;;5005744;28;11587;-90
2021/01/25 03:37:47;;;;;;;;;5.33;5.33;;;;;;;;5004041;28;12058;-85
2021/01/25 03:40:14;;;;;;;;;4.00;4.00;;;;;;;;4996943;28;12414;-81
2021/01/25 03:42:41;;;;;;;;;6.00;6.00;;;;;;;;4998652;28;11599;-84
2021/01/25 03:45:09;;;;;;;;;3.00;3.00;;;;;;;;5004525;28;12489;-85
2021/01/25 03:47:36;;;;;;;;;4.00;2.00;;;;;;;;5004628;28;11586;-89
2021/01/25 03:50:03;;;;;;;;;3.67;3.67;;;;;;;;5002798;28;11647;-85
2021/01/25 03:52:30;;;;;;;;;4.67;4.67;;;;;;;;5004182;28;11627;-89
2021/01/25 03:54:57;;;;;;;;;7.00;7.00;;;;;;;;5004585;28;11619;-87
2021/01/25 03:57:24;;;;;;;;;4.50;4.50;;;;;;;;5001991;28;11702;-82
2021/01/25 03:59:51;;;;;;;;;5.25;3.50;;;;;;;;5004998;28;11600;-85
2021/01/25 04:02:18;;;;;;;;;4.00;4.00;;;;;;;;4986523;28;12600;-89
2021/01/25 04:04:45;;;;;;;;;5.75;5.75;;;;;;;;4999177;28;11614;-91
2021/01/25 04:07:12;;;;;;;;;4.75;4.75;;;;;;;;5005168;28;11603;-90
2021/01/25 04:09:39;;;;;;;;;6.00;6.00;;;;;;;;4987638;28;11618;-86
2021/01/25 04:12:08;;;;;;;;;4.00;4.00;;;;;;;;4987005;28;11576;-89
2021/01/25 04:14:35;;;;;;;;;4.50;4.50;;;;;;;;5004865;28;11578;-83
2021/01/25 04:17:02;;;;;;;;;4.00;4.00;;;;;;;;5010092;28;12400;-83
2021/01/25 04:19:29;;;;;;;;;5.00;5.00;;;;;;;;5008860;28;11588;-91
2021/01/25 04:21:55;;;;;;;;;7.00;6.75;;;;;;;;4980194;28;11617;-80
2021/01/25 04:24:22;;;;;;;;;6.50;6.50;;;;;;;;5004649;28;11610;-87
2021/01/25 04:26:49;;;;;;;;;6.75;4.00;;;;;;;;5004356;28;12323;-88
2021/01/25 04:29:17;;;;;;;;;7.00;4.00;;;;;;;;5003445;28;11646;-85
2021/01/25 04:31:44;;;;;;;;;9.67;7.67;;;;;;;;4986832;28;11606;-81
2021/01/25 04:34:11;;;;;;;;;6.75;4.00;;;;;;;;4987962;28;11613;-87
2021/01/25 04:36:38;;;;;;;;;4.00;4.00;;;;;;;;5000405;28;11605;-90
2021/01/25 04:39:05;;;;;;;;;4.00;4.00;;;;;;;;5008771;28;11607;-87
2021/01/25 04:41:32;;;;;;;;;5.75;4.00;;;;;;;;4989784;28;11615;-82
2021/01/25 04:44:00;;;;;;;;;4.00;4.00;;;;;;;;4996430;28;11682;-87
2021/01/25 04:46:29;;;;;;;;;4.75;4.00;;;;;;;;4987009;28;12408;-92
2021/01/25 04:48:55;;;;;;;;;4.00;3.50;;;;;;;;5000861;28;11635;-88
2021/01/25 04:51:24;;;;;;;;;0.75;0.75;;;;;;;;5004549;28;11567;-89
2021/01/25 04:53:51;;;;;;;;;1.75;1.75;;;;;;;;5004918;28;11607;-87
2021/01/25 04:56:18;;;;;;;;;3.50;3.50;;;;;;;;5003965;28;12256;-88
2021/01/25 04:58:45;;;;;;;;;2.25;2.25;;;;;;;;5003905;28;11610;-88
2021/01/25 05:01:13;;;;;;;;;4.00;4.00;;;;;;;;4997830;28;12328;-81
2021/01/25 05:03:41;;;;;;;;;4.50;4.50;;;;;;;;5003553;28;11627;-82
2021/01/25 05:06:08;;;;;;;;;4.00;4.00;;;;;;;;4997817;28;11576;-87
2021/01/25 05:08:34;;;;;;;;;4.00;4.00;;;;;;;;4983278;28;11623;-89
2021/01/25 05:11:12;;;;;;;;;2.25;2.25;;;;;;;;5000432;28;11614;-84
2021/01/25 05:13:40;;;;;;;;;5.75;4.00;;;;;;;;5002271;28;11609;-87
2021/01/25 05:16:16;;;;;;;;;4.75;4.50;;;;;;;;4973964;28;11736;-78
2021/01/25 05:18:44;;;;;;;;;4.00;4.00;;;;;;;;5000623;28;11607;-86
2021/01/25 05:21:11;;;;;;;;;6.00;6.00;;;;;;;;5003442;28;11572;-85
2021/01/25 05:23:39;;;;;;;;;4.25;4.00;;;;;;;;5002003;28;11592;-85
2021/01/25 05:26:07;;;;;;;;;7.00;7.00;;;;;;;;5004355;28;11597;-89
2021/01/25 05:28:41;;;;;;;;;5.33;5.33;;;;;;;;5000533;28;12342;-87
2021/01/25 05:31:21;;;;;;;;;9.50;6.50;;;;;;;;4978856;28;11603;-79
2021/01/25 05:33:49;;;;;;;;;5.33;5.33;;;;;;;;5000532;28;11598;-86
2021/01/25 05:36:17;;;;;;;;;8.00;5.33;;;;;;;;4985784;28;11603;-87
2021/01/25 05:38:47;;;;;;;;;9.33;7.33;;;;;;;;5003168;28;11595;-85
2021/01/25 05:41:16;;;;;;;;;11.00;8.33;;;;;;;;5004813;28;11606;-86
2021/01/25 05:43:43;;;;;;;;;7.33;7.33;;;;;;;;5015683;28;11605;-87
2021/01/25 05:46:11;;;;;;;;;10.50;8.25;;;;;;;;4994555;28;11614;-89
2021/01/25 05:48:38;;;;;;;;;4.00;4.00;;;;;;;;4998368;28;11638;-91
2021/01/25 05:51:17;;;;;;;;;6.00;5.50;;;;;;;;5002169;28;11583;-80
2021/01/25 05:53:44;;;;;;;;;10.33;7.00;;;;;;;;5003648;28;11588;-77
2021/01/25 05:56:13;;;;;;;;;10.33;9.67;;;;;;;;4999489;28;11606;-84
2021/01/25 05:58:40;;;;;;;;;13.00;10.00;;;;;;;;5003761;28;11631;-83
2021/01/25 06:01:09;;;;;;;;;7.67;5.00;;;;;;;;5002526;28;11551;-78
2021/01/25 06:03:37;;;;;;;;;6.33;6.33;;;;;;;;5003681;28;11783;-79
2021/01/25 06:06:11;;;;;;;;;5.00;5.00;;;;;;;;4997411;28;11676;-81
2021/01/25 06:08:54;;;;;;;;;4.00;4.00;;;;;;;;5002085;28;11588;-75
2021/01/25 06:11:22;;;;;;;;;14.00;7.67;;;;;;;;5001458;28;11583;-78
2021/01/25 06:13:53;;;;;;;;;14.33;13.33;;;;;;;;5003903;28;11631;-85
2021/01/25 06:16:23;;;;;;;;;10.75;7.00;;;;;;;;4998955;28;11613;-75
2021/01/25 06:18:50;;;;;;;;;4.75;4.75;;;;;;;;5002768;28;11659;-82
2021/01/25 06:21:20;;;;;;;;;8.75;8.75;;;;;;;;5001121;28;11616;-85
2021/01/25 06:23:47;;;;;;;;;11.25;8.75;;;;;;;;5002029;28;11603;-83
2021/01/25 06:26:15;;;;;;;;;11.25;10.00;;;;;;;;4983579;28;11624;-81
2021/01/25 06:28:43;;;;;;;;;14.00;8.50;;;;;;;;5002103;28;12373;-81
2021/01/25 06:31:10;;;;;;;;;10.00;10.00;;;;;;;;4986441;28;11654;-79
2021/01/25 06:33:39;;;;;;;;;10.00;10.00;;;;;;;;4996619;28;11621;-82
2021/01/25 06:36:08;;;;;;;;;7.25;7.25;;;;;;;;4982323;28;11663;-80
2021/01/25 06:38:36;;;;;;;;;11.50;8.00;;;;;;;;5003717;28;11612;-79
2021/01/25 06:41:10;;;;;;;;;10.75;9.00;;;;;;;;5006710;28;12453;-84
2021/01/25 06:43:42;;;;;;;;;7.25;7.25;;;;;;;;5004281;28;11679;-80
2021/01/25 06:46:09;;;;;;;;;5.75;5.75;;;;;;;;5001574;28;11608;-78
2021/01/25 06:48:37;;;;;;;;;10.00;7.00;;;;;;;;5003281;28;11597;-87
2021/01/25 06:51:08;;;;;;;;;9.00;7.25;;;;;;;;4994853;28;11703;-78
2021/01/25 06:53:36;;;;;;;;;9.75;8.00;;;;;;;;5004945;28;12285;-70
2021/01/25 06:56:05;;;;;;;;;4.00;4.00;;;;;;;;4985410;28;11593;-72
2021/01/25 06:58:32;;;;;;;;;7.00;7.00;;;;;;;;4986938;28;11564;-70
2021/01/25 07:01:06;;;;;;;;;7.00;7.00;;;;;;;;5004152;28;11550;-70
2021/01/25 07:03:45;;;;;;;;;7.25;7.25;;;;;;;;4999923;28;11610;-69
2021/01/25 07:06:16;;;;;;;;;10.25;5.75;;;;;;;;4999281;28;11581;-69
2021/01/25 07:08:53;;;;;;;;;9.00;7.00;;;;;;;;5005070;28;11713;-70
2021/01/25 07:11:21;;;;;;;;;9.50;7.00;;;;;;;;4998344;28;11614;-70
2021/01/25 07:13:49;;;;;;;;;5.00;5.00;;;;;;;;5000665;28;11635;-75
2021/01/25 07:16:18;;;;;;;;;6.00;6.00;;;;;;;;4994770;28;11611;-70
2021/01/25 07:18:48;;;;;;;;;7.00;7.00;;;;;;;;4995222;28;11622;-71
2021/01/25 07:21:15;;;;;;;;;6.75;6.50;;;;;;;;4983773;28;11580;-71
2021/01/25 07:23:43;;;;;;;;;10.25;6.00;;;;;;;;4999487;28;12337;-70
2021/01/25 07:26:12;;;;;;;;;9.25;9.25;;;;;;;;5003883;28;11606;-70
2021/01/25 07:28:40;;;;;;;;;5.00;5.00;;;;;;;;4987150;28;11579;-70
2021/01/25 07:31:08;;;;;;;;;10.00;7.00;;;;;;;;4999475;28;11538;-71
2021/01/25 07:33:36;;;;;;;;;13.00;10.00;;;;;;;;4990069;28;11612;-70
2021/01/25 07:36:03;;;;;;;;;8.00;8.00;;;;;;;;4994215;28;11620;-71
2021/01/25 07:38:31;;;;;;;;;7.50;7.50;;;;;;;;4996438;28;12397;-70
2021/01/25 07:40:59;;;;;;;;;7.00;7.00;;;;;;;;4999010;28;11601;-70
2021/01/25 07:43:27;;;;;;;;;8.00;5.00;;;;;;;;4995658;28;11623;-70
2021/01/25 07:46:03;;;;;;;;;6.00;5.00;;;;;;;;4989884;28;12527;-70
2021/01/25 07:48:29;;;;;;;;;7.00;5.00;;;;;;;;4989113;28;11591;-70
2021/01/25 07:50:58;;;;;;;;;11.00;8.50;;;;;;;;4996312;28;11642;-70
2021/01/25 07:53:25;;;;;;;;;8.75;8.75;;;;;;;;4996282;28;11745;-70
2021/01/25 07:55:53;;;;;;;;;18.25;13.25;;;;;;;;4997904;28;11678;-71
2021/01/25 07:58:19;;;;;;;;;14.25;7.50;;;;;;;;5002665;28;11639;-70
2021/01/25 08:00:46;;;;;;;;;16.67;15.00;;;;;;;;4997457;28;11547;-71
2021/01/25 08:03:17;;;;;;;;;18.50;14.75;;;;;;;;4999082;28;11716;-70
2021/01/25 08:05:48;;;;;;;;;13.75;13.75;;;;;;;;4979894;28;11704;-70
2021/01/25 08:08:16;;;;;;;;;25.00;20.00;;;;;;;;5004420;28;11732;-70
2021/01/25 08:10:43;;;;;;;;;36.00;29.67;;;;;;;;4986132;28;11666;-70
2021/01/25 08:13:16;;;;;;;;;29.00;29.00;;;;;;;;5001062;28;8889;-71
2021/01/25 08:15:52;;;;;;;;;26.00;26.00;;;;;;;;4997629;28;8883;-70
2021/01/25 08:18:22;;;;;;;;;32.00;29.00;;;;;;;;4965093;28;11815;-70
2021/01/25 08:20:49;;;;;;;;;32.00;32.00;;;;;;;;4999662;28;8945;-70
2021/01/25 08:23:23;;;;;;;;;41.00;33.33;;;;;;;;5001028;28;8906;-70
2021/01/25 08:25:55;;;;;;;;;47.00;41.33;;;;;;;;5002317;28;8872;-70
2021/01/25 08:28:24;;;;;;;;;40.00;36.33;;;;;;;;5002584;28;8859;-69
2021/01/25 08:30:52;;;;;;;;;35.00;33.33;;;;;;;;4998814;28;8820;-70
2021/01/25 08:33:31;;;;;;;;;33.33;33.33;;;;;;;;4996269;28;9401;-70
2021/01/25 08:35:58;;;;;;;;;50.00;45.00;;;;;;;;5002100;28;8946;-71
2021/01/25 08:38:28;;;;;;;;;59.33;48.33;;;;;;;;5001602;28;8860;-70
2021/01/25 08:40:58;;;;;;;;;74.33;56.67;;;;;;;;4998320;28;8887;-70
2021/01/25 08:43:27;;;;;;;;;62.00;51.67;;;;;;;;5000758;28;8872;-70
2021/01/25 08:46:07;;;;;;;;;55.33;48.33;;;;;;;;4997955;28;9665;-70
2021/01/25 08:48:34;;;;;;;;;57.33;47.00;;;;;;;;5001996;28;8907;-71
2021/01/25 08:51:12;;;;;;;;;48.67;39.33;;;;;;;;4996672;28;8923;-70
2021/01/25 08:53:39;;;;;;;;;38.00;33.00;;;;;;;;5002659;28;9685;-70
2021/01/25 08:56:15;;;;;;;;;59.00;49.67;;;;;;;;5003061;28;8868;-70
2021/01/25 08:58:43;;;;;;;;;52.00;45.33;;;;;;;;5001321;28;8879;-69
2021/01/25 09:01:15;;;;;;;;;60.67;46.33;;;;;;;;4998422;28;8824;-69
2021/01/25 09:03:42;;;;;;;;;64.67;51.67;;;;;;;;4998026;28;8897;-69
2021/01/25 09:06:11;;;;;;;;;68.33;54.00;;;;;;;;4996427;28;8913;-69
2021/01/25 09:08:37;;;;;;;;;60.33;50.67;;;;;;;;5000835;28;8894;-69
2021/01/25 09:11:05;;;;;;;;;70.67;56.67;;;;;;;;5004073;28;8875;-69
2021/01/25 09:13:32;;;;;;;;;75.00;60.67;;;;;;;;5003399;28;8884;-69
2021/01/25 09:15:58;;;;;;;;;72.33;57.33;;;;;;;;4993285;28;9678;-68
2021/01/25 09:18:27;;;;;;;;;71.00;54.00;;;;;;;;4997646;28;8887;-69
2021/01/25 09:20:53;;;;;;;;;56.67;45.00;;;;;;;;4998442;28;8882;-69
2021/01/25 09:23:20;;;;;;;;;66.33;54.00;;;;;;;;4998154;28;9018;-69
2021/01/25 09:25:48;;;;;;;;;71.67;55.00;;;;;;;;4998615;28;9678;-69
2021/01/25 09:28:15;;;;;;;;;68.33;50.33;;;;;;;;4998020;28;8876;-69
2021/01/25 09:30:42;;;;;;;;;32.33;32.33;;;;;;;;5000562;28;8828;-69
2021/01/25 09:33:09;;;;;;;;;62.33;51.00;;;;;;;;4981776;28;8981;-69
2021/01/25 09:35:36;;;;;;;;;56.00;47.00;;;;;;;;5000117;28;8868;-68
2021/01/25 09:38:03;;;;;;;;;55.33;48.00;;;;;;;;4999261;28;9668;-69
2021/01/25 09:40:33;;;;;;;;;78.00;58.67;;;;;;;;5003427;28;8926;-69
2021/01/25 09:43:00;;;;;;;;;43.67;42.00;;;;;;;;5000361;28;8925;-70
2021/01/25 09:45:26;;;;;;;;;47.00;42.00;;;;;;;;4999361;28;8891;-70
2021/01/25 09:47:53;;;;;;;;;50.67;44.33;;;;;;;;4994708;28;8973;-69
2021/01/25 09:50:20;;;;;;;;;60.33;47.67;;;;;;;;4995682;28;8886;-70
2021/01/25 09:52:48;;;;;;;;;53.67;47.33;;;;;;;;4999622;28;8848;-69
2021/01/25 09:55:17;;;;;;;;;43.67;35.67;;;;;;;;5003232;28;8880;-71
2021/01/25 09:57:44;;;;;;;;;41.33;36.33;;;;;;;;5003080;28;8860;-70
2021/01/25 10:00:12;;;;;;;;;48.00;39.00;;;;;;;;5000846;28;12474;-70
2021/01/25 10:02:39;;;;;;;;;38.33;37.00;;;;;;;;4997796;28;11693;-71
2021/01/25 10:05:08;;;;;;;;;44.33;34.33;;;;;;;;4994539;28;11760;-71
2021/01/25 10:07:35;;;;;;;;;42.00;34.33;;;;;;;;5005378;28;11753;-70
2021/01/25 10:10:04;;;;;;;;;32.75;21.00;;;;;;;;5005929;28;11622;-70
2021/01/25 10:12:31;;;;;;;;;30.00;30.00;;;;;;;;5006171;28;11691;-70
2021/01/25 10:15:06;;;;;;;;;39.67;36.67;;;;;;;;5006006;28;11644;-69
2021/01/25 10:17:33;;;;;;;;;50.00;41.00;;;;;;;;5002133;28;12545;-71
2021/01/25 10:20:00;;;;;;;;;26.25;23.75;;;;;;;;4998143;28;11649;-70
2021/01/25 10:22:27;;;;;;;;;34.50;31.75;;;;;;;;5002497;28;11698;-71
2021/01/25 10:24:54;;;;;;;;;44.50;35.75;;;;;;;;5012840;28;11789;-70
2021/01/25 10:27:22;;;;;;;;;33.25;28.50;;;;;;;;5003136;28;11659;-71
2021/01/25 10:29:48;;;;;;;;;21.75;21.75;;;;;;;;4995067;28;11715;-70
2021/01/25 10:32:15;;;;;;;;;23.75;22.25;;;;;;;;5002504;28;11615;-71
2021/01/25 10:34:42;;;;;;;;;29.75;25.25;;;;;;;;5004883;28;11774;-71
2021/01/25 10:37:10;;;;;;;;;35.25;29.75;;;;;;;;5004294;28;11691;-70
2021/01/25 10:39:37;;;;;;;;;42.00;34.75;;;;;;;;5003743;28;11686;-70
2021/01/25 10:42:03;;;;;;;;;19.50;17.75;;;;;;;;5002868;28;11682;-70
2021/01/25 10:44:31;;;;;;;;;21.75;18.50;;;;;;;;5003021;28;11637;-70
2021/01/25 10:46:58;;;;;;;;;36.25;32.25;;;;;;;;5004436;28;11672;-70
2021/01/25 10:49:25;;;;;;;;;34.75;33.00;;;;;;;;5004478;28;11677;-69
2021/01/25 10:51:52;;;;;;;;;33.25;33.25;;;;;;;;4999857;28;12424;-70
2021/01/25 10:54:22;;;;;;;;;22.25;18.00;;;;;;;;5003472;28;11732;-69
2021/01/25 10:56:49;;;;;;;;;18.75;18.75;;;;;;;;5006367;28;11679;-70
2021/01/25 10:59:16;;;;;;;;;32.50;27.00;;;;;;;;5005242;28;11620;-69
2021/01/25 11:01:44;;;;;;;;;29.00;26.25;;;;;;;;4983410;28;11698;-69
2021/01/25 11:04:11;;;;;;;;;23.75;23.75;;;;;;;;4997321;28;11680;-70
2021/01/25 11:06:38;;;;;;;;;29.00;23.25;;;;;;;;5002186;28;11630;-70
2021/01/25 11:09:06;;;;;;;;;24.00;23.25;;;;;;;;5004844;28;11644;-69
2021/01/25 11:11:33;;;;;;;;;17.75;16.75;;;;;;;;5008920;28;11623;-68
2021/01/25 11:14:00;;;;;;;;;27.50;24.50;;;;;;;;5010309;28;11633;-69
2021/01/25 11:16:27;;;;;;;;;28.50;22.00;;;;;;;;5004932;28;11654;-69
2021/01/25 11:18:54;;;;;;;;;16.75;16.00;;;;;;;;5002462;28;11649;-69
2021/01/25 11:21:21;;;;;;;;;26.50;18.00;;;;;;;;4997128;28;11656;-69
2021/01/25 11:23:50;;;;;;;;;19.50;17.25;;;;;;;;5006070;28;11654;-69
2021/01/25 11:26:18;;;;;;;;;17.75;17.75;;;;;;;;5005281;28;11677;-69
2021/01/25 11:28:44;;;;;;;;;19.00;19.00;;;;;;;;5005557;28;11644;-69
2021/01/25 11:31:11;;;;;;;;;18.25;18.25;;;;;;;;5004821;28;11616;-69
2021/01/25 11:33:39;;;;;;;;;23.75;23.75;;;;;;;;5000097;28;11657;-69
2021/01/25 11:36:08;;;;;;;;;15.00;15.00;;;;;;;;5003069;28;11639;-68
2021/01/25 11:38:35;;;;;;;;;27.50;27.00;;;;;;;;5004573;28;11646;-69
2021/01/25 11:41:03;;;;;;;;;17.75;16.50;;;;;;;;5002747;28;11689;-68
2021/01/25 11:43:30;;;;;;;;;62.75;52.50;;;;;;;;5002608;28;11668;-69
2021/01/25 11:45:57;;;;;;;;;36.50;30.00;;;;;;;;5002655;28;11645;-70
2021/01/25 11:48:24;;;;;;;;;18.50;16.00;;;;;;;;5003266;28;11651;-70
2021/01/25 11:50:52;;;;;;;;;17.50;16.25;;;;;;;;5002008;28;11672;-70
2021/01/25 11:53:20;;;;;;;;;18.25;16.00;;;;;;;;5001670;28;11659;-70
2021/01/25 11:55:47;;;;;;;;;36.25;32.00;;;;;;;;5003349;28;11672;-70
2021/01/25 11:58:14;;;;;;;;;19.75;19.75;;;;;;;;5003032;28;12607;-70
2021/01/25 12:00:40;;;;;;;;;26.50;23.00;;;;;;;;5004535;28;11618;-70
2021/01/25 12:03:07;;;;;;;;;16.75;15.50;;;;;;;;4999090;28;11632;-69
2021/01/25 12:05:34;;;;;;;;;16.75;15.00;;;;;;;;5003048;28;11754;-70
2021/01/25 12:08:02;;;;;;;;;17.25;16.00;;;;;;;;5002392;28;11672;-70
2021/01/25 12:10:30;;;;;;;;;19.00;16.25;;;;;;;;5002291;28;11622;-69
2021/01/25 12:12:57;;;;;;;;;16.75;16.00;;;;;;;;5001796;28;11643;-68
2021/01/25 12:15:24;;;;;;;;;37.25;28.25;;;;;;;;5002672;28;11633;-69
2021/01/25 12:17:50;;;;;;;;;24.25;20.75;;;;;;;;4997041;28;11707;-69
2021/01/25 12:20:18;;;;;;;;;22.00;18.00;;;;;;;;4997281;28;11643;-73
2021/01/25 12:22:45;;;;;;;;;25.50;23.75;;;;;;;;5002710;28;11653;-69
2021/01/25 12:25:13;;;;;;;;;25.50;21.25;;;;;;;;5000848;28;11606;-70
2021/01/25 12:27:40;;;;;;;;;19.25;19.00;;;;;;;;5000326;28;11682;-70
2021/01/25 12:30:09;;;;;;;;;11.25;10.50;;;;;;;;5003238;28;11647;-70
2021/01/25 12:32:36;;;;;;;;;13.75;13.75;;;;;;;;5002118;28;11647;-70
2021/01/25 12:35:04;;;;;;;;;16.25;16.25;;;;;;;;5002514;28;11630;-69
2021/01/25 12:37:31;;;;;;;;;22.75;21.75;;;;;;;;5002303;28;11636;-71
2021/01/25 12:39:57;;;;;;;;;13.50;10.75;;;;;;;;5003609;28;11666;-69
2021/01/25 12:42:24;;;;;;;;;14.50;10.00;;;;;;;;5001318;28;11576;-71
2021/01/25 12:44:52;;;;;;;;;12.50;11.50;;;;;;;;5002810;28;11662;-70
2021/01/25 12:47:19;;;;;;;;;10.50;4.50;;;;;;;;5003392;28;11625;-69
2021/01/25 12:49:46;;;;;;;;;10.50;8.75;;;;;;;;5001141;28;11590;-69
2021/01/25 12:52:12;;;;;;;;;13.00;11.00;;;;;;;;5002187;28;11658;-70
2021/01/25 12:54:39;;;;;;;;;14.00;9.75;;;;;;;;5001713;28;11667;-71
2021/01/25 12:57:06;;;;;;;;;10.50;10.50;;;;;;;;5003107;28;11652;-71
2021/01/25 12:59:33;;;;;;;;;15.25;12.50;;;;;;;;5009314;28;11750;-70
2021/01/25 13:02:01;;;;;;;;;4.75;1.00;;;;;;;;5004400;28;11598;-70
2021/01/25 13:04:28;;;;;;;;;9.50;8.75;;;;;;;;4997364;28;12391;-70
2021/01/25 13:06:55;;;;;;;;;9.50;9.25;;;;;;;;4996365;28;11617;-71
2021/01/25 13:09:24;;;;;;;;;10.75;8.50;;;;;;;;5004020;28;11648;-71
2021/01/25 13:11:51;;;;;;;;;9.25;8.50;;;;;;;;5001284;28;11672;-70
2021/01/25 13:14:18;;;;;;;;;10.00;8.00;;;;;;;;4984999;28;11618;-70
2021/01/25 13:16:45;;;;;;;;;19.50;17.75;;;;;;;;4999641;28;11607;-70
2021/01/25 13:19:12;;;;;;;;;34.00;31.00;;;;;;;;5001988;28;12207;-70
2021/01/25 13:21:39;;;;;;;;;30.75;24.25;;;;;;;;4997976;28;11675;-70
2021/01/25 13:24:09;;;;;;;;;20.75;15.75;;;;;;;;4993348;28;11686;-71
2021/01/25 13:26:35;;;;;;;;;9.00;9.00;;;;;;;;4996440;28;11632;-70
2021/01/25 13:29:02;;;;;;;;;9.50;9.50;;;;;;;;5002225;28;11517;-70
2021/01/25 13:31:29;;;;;;;;;15.25;12.75;;;;;;;;4993754;28;11583;-71
2021/01/25 13:33:56;;;;;;;;;6.50;5.50;;;;;;;;5001547;28;11626;-70
2021/01/25 13:36:24;;;;;;;;;12.25;11.00;;;;;;;;5004068;28;11606;-68
2021/01/25 13:38:50;;;;;;;;;13.00;10.50;;;;;;;;5004698;28;11639;-71
2021/01/25 13:41:17;;;;;;;;;4.75;4.75;;;;;;;;5000417;28;11628;-70
2021/01/25 13:43:44;;;;;;;;;9.50;9.50;;;;;;;;4995689;28;11675;-70
2021/01/25 13:46:11;;;;;;;;;7.50;4.00;;;;;;;;5001766;28;11655;-71
2021/01/25 13:48:37;;;;;;;;;14.25;14.25;;;;;;;;5002388;28;11651;-71
2021/01/25 13:51:05;;;;;;;;;5.75;5.75;;;;;;;;4997271;28;11636;-68
2021/01/25 13:53:32;;;;;;;;;5.00;5.00;;;;;;;;5001541;28;11589;-70
2021/01/25 13:55:59;;;;;;;;;9.25;8.00;;;;;;;;5000242;28;11564;-69
2021/01/25 13:58:25;;;;;;;;;5.50;5.50;;;;;;;;5002812;28;11658;-69
2021/01/25 14:00:52;;;;;;;;;13.75;12.50;;;;;;;;5002645;28;11543;-69
2021/01/25 14:03:20;;;;;;;;;8.25;8.25;;;;;;;;5002222;28;11664;-69
2021/01/25 14:05:47;;;;;;;;;8.00;7.75;;;;;;;;5004334;28;11725;-69
2021/01/25 14:08:14;;;;;;;;;7.25;7.25;;;;;;;;4998819;28;12316;-69
2021/01/25 14:10:42;;;;;;;;;3.75;3.75;;;;;;;;5000753;28;11548;-70
2021/01/25 14:13:08;;;;;;;;;1.50;1.50;;;;;;;;4996319;28;11631;-69
2021/01/25 14:15:35;;;;;;;;;8.50;6.00;;;;;;;;5009464;28;11537;-70
2021/01/25 14:18:02;;;;;;;;;3.25;3.25;;;;;;;;4996585;28;11488;-69
2021/01/25 14:20:28;;;;;;;;;6.00;4.75;;;;;;;;5000141;28;13050;-70
2021/01/25 14:22:55;;;;;;;;;2.00;2.00;;;;;;;;4996485;28;11508;-69
2021/01/25 14:25:22;;;;;;;;;4.25;4.25;;;;;;;;5001061;28;11525;-69
2021/01/25 14:27:50;;;;;;;;;7.75;7.75;;;;;;;;4993866;28;11524;-70
2021/01/25 14:30:21;;;;;;;;;2.25;2.25;;;;;;;;5002072;28;11531;-70
2021/01/25 14:32:48;;;;;;;;;5.50;4.00;;;;;;;;4999097;28;11566;-69
2021/01/25 14:35:16;;;;;;;;;3.50;1.75;;;;;;;;4997960;28;11517;-69
2021/01/25 14:37:43;;;;;;;;;2.00;2.00;;;;;;;;4996497;28;11530;-70